Time,TemperatureF,DewpointF,PressureIn,WindDirection,WindDirectionDegrees,WindSpeedMPH,WindSpeedGustMPH,Humidity,HourlyPrecipIn,Conditions,Clouds,dailyrainin,SoftwareType,DateUTC
2013-05-17 00:07:00,41.0,35.3,29.80,SE,135,0.0,-999.0,80,-99.99,,,0.00,Acu-Link.com,2013-05-17 07:07:00,
2013-05-17 00:22:00,41.0,36.2,29.80,SE,135,0.0,-999.0,83,-99.99,,,0.00,Acu-Link.com,2013-05-17 07:22:00,
2013-05-17 00:37:00,39.2,34.8,29.80,NE,45,0.0,-999.0,84,-99.99,,,0.00,Acu-Link.com,2013-05-17 07:37:00,
2013-05-17 00:52:00,39.2,34.8,29.80,ENE,67,0.0,-999.0,84,-99.99,,,0.00,Acu-Link.com,2013-05-17 07:52:00,
2013-05-17 01:07:00,39.2,35.1,29.80,NE,45,0.0,-999.0,85,-99.99,,,0.00,Acu-Link.com,2013-05-17 08:07:00,
2013-05-17 01:23:00,39.2,35.4,29.80,ENE,67,0.0,-999.0,86,-99.99,,,0.00,Acu-Link.com,2013-05-17 08:23:00,
2013-05-17 01:38:00,37.4,33.3,29.80,ENE,67,0.0,-999.0,85,-99.99,,,0.00,Acu-Link.com,2013-05-17 08:38:00,
2013-05-17 01:53:00,37.4,33.6,29.80,East,90,0.0,-999.0,86,-99.99,,,0.00,Acu-Link.com,2013-05-17 08:53:00,
2013-05-17 02:08:00,37.4,33.6,29.80,ESE,112,0.0,-999.0,86,-99.99,,,0.00,Acu-Link.com,2013-05-17 09:08:00,
2013-05-17 02:23:00,35.6,32.1,29.79,ESE,112,0.0,-999.0,87,-99.99,,,0.00,Acu-Link.com,2013-05-17 09:23:00,
2013-05-17 02:38:00,35.6,32.4,29.80,ESE,112,0.0,-999.0,88,-99.99,,,0.00,Acu-Link.com,2013-05-17 09:38:00,
2013-05-17 02:54:00,35.6,32.7,29.80,NE,45,0.0,-999.0,89,-99.99,,,0.00,Acu-Link.com,2013-05-17 09:54:00,
2013-05-17 03:09:00,35.6,33.2,29.80,East,90,0.0,-999.0,91,-99.99,,,0.00,Acu-Link.com,2013-05-17 10:09:00,
2013-05-17 03:24:00,35.6,33.0,29.80,East,90,0.0,-999.0,90,-99.99,,,0.00,Acu-Link.com,2013-05-17 10:24:00,
2013-05-17 03:39:00,35.6,33.0,29.80,ENE,67,0.0,-999.0,90,-99.99,,,0.00,Acu-Link.com,2013-05-17 10:39:00,
2013-05-17 03:54:00,33.8,30.9,29.80,East,90,0.0,-999.0,89,-99.99,,,0.00,Acu-Link.com,2013-05-17 10:54:00,
2013-05-17 04:09:00,33.8,31.5,29.80,ENE,67,0.0,-999.0,91,-99.99,,,0.00,Acu-Link.com,2013-05-17 11:09:00,
2013-05-17 04:24:00,33.8,32.0,29.80,SSW,202,1.1,-999.0,93,-99.99,,,0.00,Acu-Link.com,2013-05-17 11:24:00,
2013-05-17 04:39:00,33.8,33.3,29.80,SE,135,0.0,-999.0,98,-99.99,,,0.00,Acu-Link.com,2013-05-17 11:39:00,
2013-05-17 04:54:00,33.8,33.3,29.80,ESE,112,0.0,-999.0,98,-99.99,,,0.00,Acu-Link.com,2013-05-17 11:54:00,
2013-05-17 05:10:00,33.8,33.3,29.80,ESE,112,0.0,-999.0,98,-99.99,,,0.00,Acu-Link.com,2013-05-17 12:10:00,
2013-05-17 05:25:00,33.8,33.3,29.80,ESE,112,0.0,-999.0,98,-99.99,,,0.00,Acu-Link.com,2013-05-17 12:25:00,
2013-05-17 05:40:00,33.8,33.3,29.80,ESE,112,0.0,-999.0,98,-99.99,,,0.00,Acu-Link.com,2013-05-17 12:40:00,
2013-05-17 05:55:00,33.8,33.3,29.80,SE,135,0.0,-999.0,98,-99.99,,,0.00,Acu-Link.com,2013-05-17 12:55:00,
2013-05-17 06:10:00,33.8,33.3,29.80,SE,135,0.0,-999.0,98,-99.99,,,0.00,Acu-Link.com,2013-05-17 13:10:00,
2013-05-17 06:26:00,33.8,33.3,29.80,SSE,157,0.0,-999.0,98,-99.99,,,0.00,Acu-Link.com,2013-05-17 13:26:00,
2013-05-17 06:41:00,35.6,35.1,29.81,SE,135,0.0,-999.0,98,-99.99,,,0.00,Acu-Link.com,2013-05-17 13:41:00,
2013-05-17 06:56:00,35.6,35.1,29.80,SSW,202,0.0,-999.0,98,-99.99,,,0.00,Acu-Link.com,2013-05-17 13:56:00,
2013-05-17 07:11:00,35.6,35.1,29.81,East,90,0.0,-999.0,98,-99.99,,,0.00,Acu-Link.com,2013-05-17 14:11:00,
2013-05-17 07:26:00,37.4,36.9,29.81,WSW,247,1.1,-999.0,98,-99.99,,,0.00,Acu-Link.com,2013-05-17 14:26:00,
2013-05-17 07:41:00,41.0,38.9,29.81,SSE,157,0.0,-999.0,92,-99.99,,,0.00,Acu-Link.com,2013-05-17 14:41:00,
2013-05-17 07:56:00,41.0,38.3,29.81,SSW,202,1.6,-999.0,90,-99.99,,,0.00,Acu-Link.com,2013-05-17 14:56:00,
2013-05-17 08:12:00,42.8,39.2,29.81,South,180,0.0,-999.0,87,-99.99,,,0.00,Acu-Link.com,2013-05-17 15:12:00,
2013-05-17 08:27:00,44.6,40.1,29.81,WSW,247,2.0,-999.0,84,-99.99,,,0.00,Acu-Link.com,2013-05-17 15:27:00,
2013-05-17 08:42:00,46.4,40.6,29.80,WSW,247,1.1,-999.0,80,-99.99,,,0.00,Acu-Link.com,2013-05-17 15:42:00,
2013-05-17 08:57:00,50.0,42.4,29.80,SE,135,0.0,-999.0,75,-99.99,,,0.00,Acu-Link.com,2013-05-17 15:57:00,
2013-05-17 09:12:00,51.8,42.7,29.80,WSW,247,0.0,-999.0,71,-99.99,,,0.00,Acu-Link.com,2013-05-17 16:12:00,
2013-05-17 09:28:00,53.6,41.3,29.79,SW,225,2.7,-999.0,63,-99.99,,,0.00,Acu-Link.com,2013-05-17 16:28:00,
2013-05-17 09:43:00,59.0,41.4,29.79,South,180,3.1,-999.0,52,-99.99,,,0.00,Acu-Link.com,2013-05-17 16:43:00,
2013-05-17 09:58:00,59.0,40.9,29.78,SSW,202,3.1,-999.0,51,-99.99,,,0.00,Acu-Link.com,2013-05-17 16:58:00,
2013-05-17 10:13:00,60.8,41.0,29.78,SSW,202,3.6,-999.0,48,-99.99,,,0.00,Acu-Link.com,2013-05-17 17:13:00,
2013-05-17 10:28:00,60.8,41.0,29.77,SSE,157,1.6,-999.0,48,-99.99,,,0.00,Acu-Link.com,2013-05-17 17:28:00,
2013-05-17 10:43:00,60.8,40.4,29.77,ESE,112,0.0,-999.0,47,-99.99,,,0.00,Acu-Link.com,2013-05-17 17:43:00,
2013-05-17 10:58:00,60.8,40.4,29.77,ESE,112,0.0,-999.0,47,-99.99,,,0.00,Acu-Link.com,2013-05-17 17:58:00,
2013-05-17 11:13:00,62.6,41.0,29.77,ESE,112,1.6,-999.0,45,-99.99,,,0.00,Acu-Link.com,2013-05-17 18:13:00,
2013-05-17 11:28:00,60.8,41.0,29.76,NNE,22,0.0,-999.0,48,-99.99,,,0.00,Acu-Link.com,2013-05-17 18:28:00,
2013-05-17 11:43:00,59.0,38.8,29.77,SE,135,3.1,-999.0,47,-99.99,,,0.00,Acu-Link.com,2013-05-17 18:43:00,
2013-05-17 11:59:00,59.0,39.9,29.76,East,90,2.0,-999.0,49,-99.99,,,0.00,Acu-Link.com,2013-05-17 18:59:00,
2013-05-17 12:14:00,59.0,40.9,29.75,SSE,157,3.1,-999.0,51,-99.99,,,0.00,Acu-Link.com,2013-05-17 19:14:00,
2013-05-17 12:29:00,59.0,41.9,29.75,ESE,112,0.0,-999.0,53,-99.99,,,0.00,Acu-Link.com,2013-05-17 19:29:00,
2013-05-17 12:44:00,55.4,45.4,29.76,North,0,1.6,-999.0,69,-99.99,,,0.08,Acu-Link.com,2013-05-17 19:44:00,
2013-05-17 13:00:00,53.6,47.2,29.76,ESE,112,0.0,-999.0,79,-99.99,,,0.11,Acu-Link.com,2013-05-17 20:00:00,
2013-05-17 13:15:00,53.6,48.6,29.77,SSE,157,0.0,-999.0,83,-99.99,,,0.11,Acu-Link.com,2013-05-17 20:15:00,
2013-05-17 13:30:00,53.6,48.6,29.78,SE,135,2.0,-999.0,83,-99.99,,,0.11,Acu-Link.com,2013-05-17 20:30:00,
2013-05-17 13:45:00,50.0,45.0,29.79,ESE,112,3.1,-999.0,83,-99.99,,,0.15,Acu-Link.com,2013-05-17 20:45:00,
2013-05-17 14:01:00,51.8,46.5,29.77,NNE,22,3.1,-999.0,82,-99.99,,,0.18,Acu-Link.com,2013-05-17 21:01:00,
2013-05-17 14:16:00,57.2,48.3,29.77,East,90,3.1,-999.0,72,-99.99,,,0.18,Acu-Link.com,2013-05-17 21:16:00,
2013-05-17 14:31:00,59.0,48.5,29.76,North,0,1.1,-999.0,68,-99.99,,,0.18,Acu-Link.com,2013-05-17 21:31:00,
2013-05-17 14:46:00,57.2,45.9,29.76,NNE,22,1.6,-999.0,66,-99.99,,,0.18,Acu-Link.com,2013-05-17 21:46:00,
2013-05-17 15:01:00,59.0,44.7,29.76,SSE,157,0.0,-999.0,59,-99.99,,,0.18,Acu-Link.com,2013-05-17 22:01:00,
2013-05-17 15:17:00,57.2,46.7,29.77,ENE,67,3.6,-999.0,68,-99.99,,,0.18,Acu-Link.com,2013-05-17 22:17:00,
2013-05-17 15:32:00,53.6,44.4,29.77,SSE,157,2.0,-999.0,71,-99.99,,,0.18,Acu-Link.com,2013-05-17 22:32:00,
2013-05-17 15:47:00,59.0,46.0,29.76,South,180,3.1,-999.0,62,-99.99,,,0.18,Acu-Link.com,2013-05-17 22:47:00,
2013-05-17 16:02:00,60.8,44.5,29.75,South,180,2.0,-999.0,55,-99.99,,,0.18,Acu-Link.com,2013-05-17 23:02:00,
2013-05-17 16:17:00,62.6,43.7,29.75,ESE,112,2.7,-999.0,50,-99.99,,,0.18,Acu-Link.com,2013-05-17 23:17:00,
2013-05-17 16:32:00,64.4,44.8,29.75,SSW,202,2.0,-999.0,49,-99.99,,,0.18,Acu-Link.com,2013-05-17 23:32:00,
2013-05-17 16:47:00,62.6,42.1,29.75,ESE,112,2.0,-999.0,47,-99.99,,,0.18,Acu-Link.com,2013-05-17 23:47:00,
2013-05-17 17:02:00,64.4,42.6,29.74,SSE,157,3.1,-999.0,45,-99.99,,,0.18,Acu-Link.com,2013-05-18 00:02:00,
2013-05-17 17:17:00,62.6,43.7,29.74,WSW,247,1.6,-999.0,50,-99.99,,,0.18,Acu-Link.com,2013-05-18 00:17:00,
2013-05-17 17:33:00,64.4,44.3,29.74,South,180,0.0,-999.0,48,-99.99,,,0.18,Acu-Link.com,2013-05-18 00:33:00,
2013-05-17 17:48:00,64.4,45.9,29.74,South,180,1.6,-999.0,51,-99.99,,,0.18,Acu-Link.com,2013-05-18 00:48:00,
2013-05-17 18:03:00,64.4,42.6,29.73,South,180,0.0,-999.0,45,-99.99,,,0.18,Acu-Link.com,2013-05-18 01:03:00,
2013-05-17 18:18:00,62.6,41.5,29.74,ESE,112,3.1,-999.0,46,-99.99,,,0.18,Acu-Link.com,2013-05-18 01:18:00,
2013-05-17 18:33:00,60.8,42.0,29.74,SSE,157,1.6,-999.0,50,-99.99,,,0.18,Acu-Link.com,2013-05-18 01:33:00,
2013-05-17 18:48:00,59.0,40.9,29.74,ESE,112,2.7,-999.0,51,-99.99,,,0.18,Acu-Link.com,2013-05-18 01:48:00,
2013-05-17 19:04:00,59.0,42.4,29.74,NE,45,0.0,-999.0,54,-99.99,,,0.18,Acu-Link.com,2013-05-18 02:04:00,
2013-05-17 19:19:00,59.0,42.9,29.74,NE,45,0.0,-999.0,55,-99.99,,,0.18,Acu-Link.com,2013-05-18 02:19:00,
2013-05-17 19:34:00,59.0,41.9,29.73,ESE,112,1.6,-999.0,53,-99.99,,,0.18,Acu-Link.com,2013-05-18 02:34:00,
2013-05-17 19:49:00,59.0,42.4,29.74,East,90,0.0,-999.0,54,-99.99,,,0.18,Acu-Link.com,2013-05-18 02:49:00,
2013-05-17 20:05:00,57.2,41.6,29.74,East,90,0.0,-999.0,56,-99.99,,,0.18,Acu-Link.com,2013-05-18 03:05:00,
2013-05-17 20:20:00,55.4,40.9,29.74,East,90,0.0,-999.0,58,-99.99,,,0.18,Acu-Link.com,2013-05-18 03:20:00,
2013-05-17 20:35:00,55.4,41.7,29.74,East,90,0.0,-999.0,60,-99.99,,,0.18,Acu-Link.com,2013-05-18 03:35:00,
2013-05-17 20:50:00,53.6,40.1,29.74,NE,45,0.0,-999.0,60,-99.99,,,0.18,Acu-Link.com,2013-05-18 03:50:00,
2013-05-17 21:05:00,53.6,40.5,29.75,NNW,337,0.0,-999.0,61,-99.99,,,0.18,Acu-Link.com,2013-05-18 04:05:00,
2013-05-17 21:21:00,53.6,42.5,29.75,NW,315,1.6,-999.0,66,-99.99,,,0.18,Acu-Link.com,2013-05-18 04:21:00,
2013-05-17 21:36:00,51.8,41.2,29.75,East,90,0.0,-999.0,67,-99.99,,,0.18,Acu-Link.com,2013-05-18 04:36:00,
2013-05-17 21:51:00,51.8,41.6,29.75,East,90,0.0,-999.0,68,-99.99,,,0.18,Acu-Link.com,2013-05-18 04:51:00,
2013-05-17 22:06:00,50.0,41.0,29.75,East,90,0.0,-999.0,71,-99.99,,,0.18,Acu-Link.com,2013-05-18 05:06:00,
2013-05-17 22:21:00,50.0,41.3,29.76,ENE,67,0.0,-999.0,72,-99.99,,,0.18,Acu-Link.com,2013-05-18 05:21:00,
2013-05-17 22:36:00,50.0,41.3,29.76,West,270,0.0,-999.0,72,-99.99,,,0.18,Acu-Link.com,2013-05-18 05:36:00,
2013-05-17 22:51:00,50.0,42.0,29.76,NW,315,2.7,-999.0,74,-99.99,,,0.18,Acu-Link.com,2013-05-18 05:51:00,
2013-05-17 23:06:00,48.2,41.0,29.76,NE,45,1.6,-999.0,76,-99.99,,,0.18,Acu-Link.com,2013-05-18 06:06:00,
2013-05-17 23:22:00,46.4,39.3,29.76,East,90,0.0,-999.0,76,-99.99,,,0.18,Acu-Link.com,2013-05-18 06:22:00,
2013-05-17 23:37:00,46.4,39.6,29.77,East,90,0.0,-999.0,77,-99.99,,,0.18,Acu-Link.com,2013-05-18 06:37:00,
2013-05-17 23:52:00,44.6,38.5,29.77,NE,45,0.0,-999.0,79,-99.99,,,0.18,Acu-Link.com,2013-05-18 06:52:00,